EDXW/GWT METAR and TAF weather

Enter ICAO airport designator
Station Type Date Time Source
EDXW METAR 2018/12/12 15:50 UTC NOAA

EDXW 121550Z 10008KT 9999 BKN026 04/01 Q1029


Station Type Date Time Source
EDXW Decoded METAR 2018/12/12 15:50 UTC NOAA

Westerland / Sylt, Germany (EDXW) 54-55N 008-21E 20M
Dec 12, 2018 - 10:50 AM EST / 2018.12.12 1550 UTC
Wind: from the E (100 degrees) at 9 MPH (8 KT):0
Visibility: greater than 7 mile(s):0
Sky conditions: mostly cloudy
Temperature: 39 F (4 C)
Dew Point: 33 F (1 C)
Relative Humidity: 80%
Pressure (altimeter): 30.39 in. Hg (1029 hPa)
ob: EDXW 121550Z 10008KT 9999 BKN026 04/01 Q1029
cycle: 16

Station Type Date Time Source
EDXW TAF 2009/07/07 14:00 UTC NOAA

TAF EDXW 071400Z 0715/0719 22015G25KT 9999 SCT020


Example: see airport list